sensor_id;sensor_type;location;lat;lon;timestamp;temperature;humidity
51567;DHT22;37657;53.182;5.638;2022-07-29T00:00:12;14.70;99.90
51567;DHT22;37657;53.182;5.638;2022-07-29T00:02:37;14.70;99.90
51567;DHT22;37657;53.182;5.638;2022-07-29T00:05:04;14.70;99.90
51567;DHT22;37657;53.182;5.638;2022-07-29T00:07:30;14.70;99.90
51567;DHT22;37657;53.182;5.638;2022-07-29T00:09:56;14.70;99.90
51567;DHT22;37657;53.182;5.638;2022-07-29T00:12:23;14.60;99.90
51567;DHT22;37657;53.182;5.638;2022-07-29T00:14:49;14.70;99.90
51567;DHT22;37657;53.182;5.638;2022-07-29T00:17:15;14.70;99.90
51567;DHT22;37657;53.182;5.638;2022-07-29T00:19:40;14.70;99.90
51567;DHT22;37657;53.182;5.638;2022-07-29T00:22:06;14.70;99.90
51567;DHT22;37657;53.182;5.638;2022-07-29T00:24:32;14.70;99.90
51567;DHT22;37657;53.182;5.638;2022-07-29T00:26:57;14.70;99.90
51567;DHT22;37657;53.182;5.638;2022-07-29T00:29:23;14.70;99.90
51567;DHT22;37657;53.182;5.638;2022-07-29T00:31:49;14.70;99.90
51567;DHT22;37657;53.182;5.638;2022-07-29T00:34:14;14.70;99.90
51567;DHT22;37657;53.182;5.638;2022-07-29T00:36:58;14.70;99.90
51567;DHT22;37657;53.182;5.638;2022-07-29T00:39:24;14.70;99.90
51567;DHT22;37657;53.182;5.638;2022-07-29T00:41:50;14.70;99.90
51567;DHT22;37657;53.182;5.638;2022-07-29T00:44:15;14.70;99.90
51567;DHT22;37657;53.182;5.638;2022-07-29T00:46:41;14.70;99.90
51567;DHT22;37657;53.182;5.638;2022-07-29T00:49:07;14.70;99.90
51567;DHT22;37657;53.182;5.638;2022-07-29T00:51:35;14.70;99.90
51567;DHT22;37657;53.182;5.638;2022-07-29T00:54:02;14.70;99.90
51567;DHT22;37657;53.182;5.638;2022-07-29T00:56:30;14.70;99.90
51567;DHT22;37657;53.182;5.638;2022-07-29T00:58:56;14.70;99.90
51567;DHT22;37657;53.182;5.638;2022-07-29T01:01:22;14.70;99.90
51567;DHT22;37657;53.182;5.638;2022-07-29T01:03:48;14.70;99.90
51567;DHT22;37657;53.182;5.638;2022-07-29T01:06:15;14.80;99.90
51567;DHT22;37657;53.182;5.638;2022-07-29T01:08:42;14.80;99.90
51567;DHT22;37657;53.182;5.638;2022-07-29T01:11:08;14.80;99.90
51567;DHT22;37657;53.182;5.638;2022-07-29T01:13:34;14.80;99.90
51567;DHT22;37657;53.182;5.638;2022-07-29T01:16:06;14.90;99.90
51567;DHT22;37657;53.182;5.638;2022-07-29T01:18:40;14.90;99.90
51567;DHT22;37657;53.182;5.638;2022-07-29T01:24:19;14.90;99.90
51567;DHT22;37657;53.182;5.638;2022-07-29T01:27:20;14.90;99.90
51567;DHT22;37657;53.182;5.638;2022-07-29T01:29:56;15.00;99.90
51567;DHT22;37657;53.182;5.638;2022-07-29T01:32:27;14.90;99.90
51567;DHT22;37657;53.182;5.638;2022-07-29T01:35:03;14.90;99.90
51567;DHT22;37657;53.182;5.638;2022-07-29T01:37:38;14.90;99.90
51567;DHT22;37657;53.182;5.638;2022-07-29T01:40:11;14.90;99.90
51567;DHT22;37657;53.182;5.638;2022-07-29T01:42:43;14.90;99.90
51567;DHT22;37657;53.182;5.638;2022-07-29T01:50:23;14.90;99.90
51567;DHT22;37657;53.182;5.638;2022-07-29T01:53:00;14.90;99.90
51567;DHT22;37657;53.182;5.638;2022-07-29T01:55:29;14.90;99.90
51567;DHT22;37657;53.182;5.638;2022-07-29T01:57:57;14.90;99.90
51567;DHT22;37657;53.182;5.638;2022-07-29T02:00:25;14.90;99.90
51567;DHT22;37657;53.182;5.638;2022-07-29T02:02:53;14.90;99.90
51567;DHT22;37657;53.182;5.638;2022-07-29T02:05:21;14.90;99.90
51567;DHT22;37657;53.182;5.638;2022-07-29T02:07:48;15.00;99.90
51567;DHT22;37657;53.182;5.638;2022-07-29T02:10:15;14.90;99.90
51567;DHT22;37657;53.182;5.638;2022-07-29T02:12:43;14.90;99.90
51567;DHT22;37657;53.182;5.638;2022-07-29T02:15:11;14.90;99.90
51567;DHT22;37657;53.182;5.638;2022-07-29T02:17:42;14.90;99.90
51567;DHT22;37657;53.182;5.638;2022-07-29T02:20:09;14.90;99.90
51567;DHT22;37657;53.182;5.638;2022-07-29T02:22:37;14.90;99.90
51567;DHT22;37657;53.182;5.638;2022-07-29T02:25:04;14.90;99.90
51567;DHT22;37657;53.182;5.638;2022-07-29T02:27:30;15.00;99.90
51567;DHT22;37657;53.182;5.638;2022-07-29T02:30:00;14.90;99.90
51567;DHT22;37657;53.182;5.638;2022-07-29T02:32:28;14.90;99.90
51567;DHT22;37657;53.182;5.638;2022-07-29T02:34:55;14.90;99.90
51567;DHT22;37657;53.182;5.638;2022-07-29T02:37:22;14.90;99.90
51567;DHT22;37657;53.182;5.638;2022-07-29T02:39:48;15.00;99.90
51567;DHT22;37657;53.182;5.638;2022-07-29T02:42:17;15.00;99.90
51567;DHT22;37657;53.182;5.638;2022-07-29T02:44:43;15.00;99.90
51567;DHT22;37657;53.182;5.638;2022-07-29T02:49:38;15.00;99.90
51567;DHT22;37657;53.182;5.638;2022-07-29T02:52:12;14.90;99.90
51567;DHT22;37657;53.182;5.638;2022-07-29T02:54:55;15.00;99.90
51567;DHT22;37657;53.182;5.638;2022-07-29T02:57:41;15.00;99.90
51567;DHT22;37657;53.182;5.638;2022-07-29T03:00:09;14.90;99.90
51567;DHT22;37657;53.182;5.638;2022-07-29T03:02:38;14.90;99.90
51567;DHT22;37657;53.182;5.638;2022-07-29T03:05:08;14.90;99.90
51567;DHT22;37657;53.182;5.638;2022-07-29T03:07:35;14.90;99.90
51567;DHT22;37657;53.182;5.638;2022-07-29T03:10:02;14.90;99.90
51567;DHT22;37657;53.182;5.638;2022-07-29T03:12:28;14.90;99.90
51567;DHT22;37657;53.182;5.638;2022-07-29T03:14:55;14.90;99.90
51567;DHT22;37657;53.182;5.638;2022-07-29T03:17:22;14.90;99.90
51567;DHT22;37657;53.182;5.638;2022-07-29T03:19:48;14.90;99.90
51567;DHT22;37657;53.182;5.638;2022-07-29T03:22:14;14.90;99.90
51567;DHT22;37657;53.182;5.638;2022-07-29T03:24:40;14.90;99.90
51567;DHT22;37657;53.182;5.638;2022-07-29T03:27:05;15.00;99.90
51567;DHT22;37657;53.182;5.638;2022-07-29T03:29:32;15.00;99.90
51567;DHT22;37657;53.182;5.638;2022-07-29T03:31:57;14.90;99.90
51567;DHT22;37657;53.182;5.638;2022-07-29T03:34:23;15.00;99.90
51567;DHT22;37657;53.182;5.638;2022-07-29T03:36:49;15.00;99.90
51567;DHT22;37657;53.182;5.638;2022-07-29T03:39:22;15.00;99.90
51567;DHT22;37657;53.182;5.638;2022-07-29T03:41:51;15.00;99.90
51567;DHT22;37657;53.182;5.638;2022-07-29T03:44:18;15.00;99.90
51567;DHT22;37657;53.182;5.638;2022-07-29T03:46:45;15.00;99.90
51567;DHT22;37657;53.182;5.638;2022-07-29T03:49:11;15.00;99.90
51567;DHT22;37657;53.182;5.638;2022-07-29T03:51:37;15.00;99.90
51567;DHT22;37657;53.182;5.638;2022-07-29T03:54:05;15.00;99.90
51567;DHT22;37657;53.182;5.638;2022-07-29T03:56:32;15.00;99.90
51567;DHT22;37657;53.182;5.638;2022-07-29T03:59:01;15.00;99.90
51567;DHT22;37657;53.182;5.638;2022-07-29T04:01:28;15.00;99.90
51567;DHT22;37657;53.182;5.638;2022-07-29T04:03:54;15.00;99.90
51567;DHT22;37657;53.182;5.638;2022-07-29T04:06:20;15.00;99.90
51567;DHT22;37657;53.182;5.638;2022-07-29T04:08:46;15.00;99.90
51567;DHT22;37657;53.182;5.638;2022-07-29T04:11:12;15.00;99.90
51567;DHT22;37657;53.182;5.638;2022-07-29T04:13:38;15.00;99.90
51567;DHT22;37657;53.182;5.638;2022-07-29T04:16:04;15.00;99.90
51567;DHT22;37657;53.182;5.638;2022-07-29T04:18:29;15.00;99.90
51567;DHT22;37657;53.182;5.638;2022-07-29T04:20:55;15.00;99.90
51567;DHT22;37657;53.182;5.638;2022-07-29T04:23:20;15.00;99.90
51567;DHT22;37657;53.182;5.638;2022-07-29T04:25:46;15.00;99.90
51567;DHT22;37657;53.182;5.638;2022-07-29T04:28:12;15.10;99.90
51567;DHT22;37657;53.182;5.638;2022-07-29T04:30:39;15.10;99.90
51567;DHT22;37657;53.182;5.638;2022-07-29T04:33:06;15.10;99.90
51567;DHT22;37657;53.182;5.638;2022-07-29T04:35:36;15.10;99.90
51567;DHT22;37657;53.182;5.638;2022-07-29T04:38:03;15.20;99.90
51567;DHT22;37657;53.182;5.638;2022-07-29T04:40:29;15.20;99.90
51567;DHT22;37657;53.182;5.638;2022-07-29T04:42:55;15.30;99.90
51567;DHT22;37657;53.182;5.638;2022-07-29T04:45:20;15.30;99.90
51567;DHT22;37657;53.182;5.638;2022-07-29T04:47:46;15.40;99.90
51567;DHT22;37657;53.182;5.638;2022-07-29T04:50:12;15.40;99.90
51567;DHT22;37657;53.182;5.638;2022-07-29T04:52:37;15.40;99.90
51567;DHT22;37657;53.182;5.638;2022-07-29T04:55:04;15.40;99.90
51567;DHT22;37657;53.182;5.638;2022-07-29T04:57:30;15.40;99.90
51567;DHT22;37657;53.182;5.638;2022-07-29T04:59:56;15.50;99.90
51567;DHT22;37657;53.182;5.638;2022-07-29T05:02:21;15.50;99.90
51567;DHT22;37657;53.182;5.638;2022-07-29T05:04:47;15.50;99.90
51567;DHT22;37657;53.182;5.638;2022-07-29T05:07:13;15.50;99.90
51567;DHT22;37657;53.182;5.638;2022-07-29T05:09:39;15.50;99.90
51567;DHT22;37657;53.182;5.638;2022-07-29T05:12:05;15.40;99.90
51567;DHT22;37657;53.182;5.638;2022-07-29T05:14:31;15.40;99.90
51567;DHT22;37657;53.182;5.638;2022-07-29T05:16:56;15.50;99.90
51567;DHT22;37657;53.182;5.638;2022-07-29T05:19:22;15.50;99.90
51567;DHT22;37657;53.182;5.638;2022-07-29T05:21:49;15.50;99.90
51567;DHT22;37657;53.182;5.638;2022-07-29T05:24:14;15.60;99.90
51567;DHT22;37657;53.182;5.638;2022-07-29T05:26:40;15.60;99.90
51567;DHT22;37657;53.182;5.638;2022-07-29T05:29:05;15.70;99.90
51567;DHT22;37657;53.182;5.638;2022-07-29T05:31:31;15.70;99.90
51567;DHT22;37657;53.182;5.638;2022-07-29T05:33:58;15.70;99.90
51567;DHT22;37657;53.182;5.638;2022-07-29T05:36:24;15.80;99.90
51567;DHT22;37657;53.182;5.638;2022-07-29T05:38:49;15.80;99.90
51567;DHT22;37657;53.182;5.638;2022-07-29T05:41:17;15.80;99.90
51567;DHT22;37657;53.182;5.638;2022-07-29T05:43:43;15.80;99.90
51567;DHT22;37657;53.182;5.638;2022-07-29T05:46:08;15.90;99.90
51567;DHT22;37657;53.182;5.638;2022-07-29T05:48:34;15.90;99.90
51567;DHT22;37657;53.182;5.638;2022-07-29T05:51:00;15.90;99.90
51567;DHT22;37657;53.182;5.638;2022-07-29T05:53:25;16.00;99.90
51567;DHT22;37657;53.182;5.638;2022-07-29T05:55:51;16.00;99.90
51567;DHT22;37657;53.182;5.638;2022-07-29T05:58:17;16.10;99.90
51567;DHT22;37657;53.182;5.638;2022-07-29T06:00:43;16.20;99.90
51567;DHT22;37657;53.182;5.638;2022-07-29T06:03:08;16.20;99.90
51567;DHT22;37657;53.182;5.638;2022-07-29T06:05:34;16.30;99.90
51567;DHT22;37657;53.182;5.638;2022-07-29T06:08:00;16.40;99.90
51567;DHT22;37657;53.182;5.638;2022-07-29T06:10:25;16.40;99.90
51567;DHT22;37657;53.182;5.638;2022-07-29T06:12:52;16.50;99.90
51567;DHT22;37657;53.182;5.638;2022-07-29T06:15:17;16.60;99.90
51567;DHT22;37657;53.182;5.638;2022-07-29T06:17:43;16.70;99.90
51567;DHT22;37657;53.182;5.638;2022-07-29T06:20:09;16.70;99.90
51567;DHT22;37657;53.182;5.638;2022-07-29T06:22:35;16.70;99.90
51567;DHT22;37657;53.182;5.638;2022-07-29T06:25:02;16.80;99.90
51567;DHT22;37657;53.182;5.638;2022-07-29T06:27:27;16.90;99.90
51567;DHT22;37657;53.182;5.638;2022-07-29T06:29:53;16.90;99.90
51567;DHT22;37657;53.182;5.638;2022-07-29T06:32:19;17.00;99.90
51567;DHT22;37657;53.182;5.638;2022-07-29T06:34:44;17.00;99.90
51567;DHT22;37657;53.182;5.638;2022-07-29T06:37:10;17.10;99.90
51567;DHT22;37657;53.182;5.638;2022-07-29T06:39:36;17.10;99.90
51567;DHT22;37657;53.182;5.638;2022-07-29T06:42:03;17.20;99.90
51567;DHT22;37657;53.182;5.638;2022-07-29T06:44:29;17.30;99.90
51567;DHT22;37657;53.182;5.638;2022-07-29T06:46:55;17.30;99.90
51567;DHT22;37657;53.182;5.638;2022-07-29T06:49:21;17.40;99.90
51567;DHT22;37657;53.182;5.638;2022-07-29T06:51:47;17.40;99.90
51567;DHT22;37657;53.182;5.638;2022-07-29T06:54:12;17.50;99.90
51567;DHT22;37657;53.182;5.638;2022-07-29T06:56:38;17.60;99.90
51567;DHT22;37657;53.182;5.638;2022-07-29T06:59:08;17.60;99.90
51567;DHT22;37657;53.182;5.638;2022-07-29T07:01:35;17.70;99.90
51567;DHT22;37657;53.182;5.638;2022-07-29T07:04:01;17.80;99.90
51567;DHT22;37657;53.182;5.638;2022-07-29T07:06:27;17.80;99.90
51567;DHT22;37657;53.182;5.638;2022-07-29T07:08:53;17.90;99.90
51567;DHT22;37657;53.182;5.638;2022-07-29T07:11:19;17.90;99.90
51567;DHT22;37657;53.182;5.638;2022-07-29T07:13:44;17.90;99.90
51567;DHT22;37657;53.182;5.638;2022-07-29T07:16:10;17.90;99.90
51567;DHT22;37657;53.182;5.638;2022-07-29T07:18:35;17.90;99.90
51567;DHT22;37657;53.182;5.638;2022-07-29T07:21:01;17.90;99.90
51567;DHT22;37657;53.182;5.638;2022-07-29T07:23:26;18.00;99.90
51567;DHT22;37657;53.182;5.638;2022-07-29T07:25:52;18.00;99.90
51567;DHT22;37657;53.182;5.638;2022-07-29T07:28:18;18.00;99.90
51567;DHT22;37657;53.182;5.638;2022-07-29T07:30:44;18.00;99.90
51567;DHT22;37657;53.182;5.638;2022-07-29T07:33:10;18.00;99.90
51567;DHT22;37657;53.182;5.638;2022-07-29T07:35:35;18.00;99.90
51567;DHT22;37657;53.182;5.638;2022-07-29T07:38:01;18.00;99.90
51567;DHT22;37657;53.182;5.638;2022-07-29T07:40:27;18.10;99.90
51567;DHT22;37657;53.182;5.638;2022-07-29T07:42:52;18.10;99.90
51567;DHT22;37657;53.182;5.638;2022-07-29T07:45:18;18.10;99.90
51567;DHT22;37657;53.182;5.638;2022-07-29T07:47:43;18.00;99.90
51567;DHT22;37657;53.182;5.638;2022-07-29T07:50:11;18.00;99.90
51567;DHT22;37657;53.182;5.638;2022-07-29T07:52:50;18.00;99.90
51567;DHT22;37657;53.182;5.638;2022-07-29T07:55:16;18.00;99.90
51567;DHT22;37657;53.182;5.638;2022-07-29T07:57:42;18.10;99.90
51567;DHT22;37657;53.182;5.638;2022-07-29T08:00:08;18.00;99.90
51567;DHT22;37657;53.182;5.638;2022-07-29T08:02:34;18.00;99.90
51567;DHT22;37657;53.182;5.638;2022-07-29T08:04:59;18.10;99.90
51567;DHT22;37657;53.182;5.638;2022-07-29T08:07:25;18.10;99.90
51567;DHT22;37657;53.182;5.638;2022-07-29T08:09:51;18.10;99.90
51567;DHT22;37657;53.182;5.638;2022-07-29T08:12:16;18.20;99.90
51567;DHT22;37657;53.182;5.638;2022-07-29T08:14:42;18.30;99.90
51567;DHT22;37657;53.182;5.638;2022-07-29T08:17:07;18.30;99.90
51567;DHT22;37657;53.182;5.638;2022-07-29T08:19:33;18.30;99.90
51567;DHT22;37657;53.182;5.638;2022-07-29T08:21:58;18.40;99.90
51567;DHT22;37657;53.182;5.638;2022-07-29T08:24:24;18.40;99.90
51567;DHT22;37657;53.182;5.638;2022-07-29T08:27:08;18.50;99.90
51567;DHT22;37657;53.182;5.638;2022-07-29T08:29:34;18.50;99.90
51567;DHT22;37657;53.182;5.638;2022-07-29T08:31:59;18.60;99.90
51567;DHT22;37657;53.182;5.638;2022-07-29T08:34:25;18.60;99.90
51567;DHT22;37657;53.182;5.638;2022-07-29T08:36:51;18.70;99.90
51567;DHT22;37657;53.182;5.638;2022-07-29T08:39:16;18.70;99.90
51567;DHT22;37657;53.182;5.638;2022-07-29T08:41:42;18.70;99.90
51567;DHT22;37657;53.182;5.638;2022-07-29T08:44:09;18.80;99.90
51567;DHT22;37657;53.182;5.638;2022-07-29T08:46:37;18.80;99.90
51567;DHT22;37657;53.182;5.638;2022-07-29T08:49:04;18.80;99.90
51567;DHT22;37657;53.182;5.638;2022-07-29T08:51:30;18.80;99.90
51567;DHT22;37657;53.182;5.638;2022-07-29T08:53:58;18.80;99.90
51567;DHT22;37657;53.182;5.638;2022-07-29T08:56:24;18.80;99.90
51567;DHT22;37657;53.182;5.638;2022-07-29T08:58:50;18.90;99.90
51567;DHT22;37657;53.182;5.638;2022-07-29T09:01:21;18.90;99.90
51567;DHT22;37657;53.182;5.638;2022-07-29T09:03:47;18.90;99.90
51567;DHT22;37657;53.182;5.638;2022-07-29T09:06:17;18.90;99.90
51567;DHT22;37657;53.182;5.638;2022-07-29T09:08:44;19.00;99.90
51567;DHT22;37657;53.182;5.638;2022-07-29T09:11:09;19.00;99.90
51567;DHT22;37657;53.182;5.638;2022-07-29T09:13:36;18.90;99.90
51567;DHT22;37657;53.182;5.638;2022-07-29T09:16:02;18.90;99.90
51567;DHT22;37657;53.182;5.638;2022-07-29T09:18:37;18.90;99.90
51567;DHT22;37657;53.182;5.638;2022-07-29T09:21:04;18.90;99.90
51567;DHT22;37657;53.182;5.638;2022-07-29T09:26:35;19.00;99.90
51567;DHT22;37657;53.182;5.638;2022-07-29T09:29:17;19.00;99.90
51567;DHT22;37657;53.182;5.638;2022-07-29T09:31:48;18.90;99.90
51567;DHT22;37657;53.182;5.638;2022-07-29T09:34:16;19.00;99.90
51567;DHT22;37657;53.182;5.638;2022-07-29T09:36:47;19.00;99.90
51567;DHT22;37657;53.182;5.638;2022-07-29T09:39:14;19.00;99.90
51567;DHT22;37657;53.182;5.638;2022-07-29T09:42:01;19.00;99.90
51567;DHT22;37657;53.182;5.638;2022-07-29T09:44:46;19.00;99.90
51567;DHT22;37657;53.182;5.638;2022-07-29T09:47:14;19.10;99.90
51567;DHT22;37657;53.182;5.638;2022-07-29T09:50:00;19.10;99.90
51567;DHT22;37657;53.182;5.638;2022-07-29T09:52:29;19.20;99.90
51567;DHT22;37657;53.182;5.638;2022-07-29T09:55:09;19.20;99.90
51567;DHT22;37657;53.182;5.638;2022-07-29T09:57:36;19.20;99.90
51567;DHT22;37657;53.182;5.638;2022-07-29T10:00:13;19.30;99.90
51567;DHT22;37657;53.182;5.638;2022-07-29T10:02:41;19.30;99.90
51567;DHT22;37657;53.182;5.638;2022-07-29T10:07:54;19.30;99.90
51567;DHT22;37657;53.182;5.638;2022-07-29T10:10:24;19.30;99.90
51567;DHT22;37657;53.182;5.638;2022-07-29T10:13:06;19.30;99.90
51567;DHT22;37657;53.182;5.638;2022-07-29T10:15:34;19.30;99.90
51567;DHT22;37657;53.182;5.638;2022-07-29T10:18:06;19.30;99.90
51567;DHT22;37657;53.182;5.638;2022-07-29T10:20:32;19.30;99.90
51567;DHT22;37657;53.182;5.638;2022-07-29T10:22:59;19.20;99.90
51567;DHT22;37657;53.182;5.638;2022-07-29T10:25:25;19.20;99.90
51567;DHT22;37657;53.182;5.638;2022-07-29T10:27:51;19.20;99.90
51567;DHT22;37657;53.182;5.638;2022-07-29T10:30:18;19.20;99.90
51567;DHT22;37657;53.182;5.638;2022-07-29T10:33:00;19.10;99.90
51567;DHT22;37657;53.182;5.638;2022-07-29T10:36:02;19.10;99.90
51567;DHT22;37657;53.182;5.638;2022-07-29T10:39:05;19.10;99.90
51567;DHT22;37657;53.182;5.638;2022-07-29T10:41:59;19.10;99.90
51567;DHT22;37657;53.182;5.638;2022-07-29T10:44:26;19.10;99.90
51567;DHT22;37657;53.182;5.638;2022-07-29T10:46:53;19.00;99.90
51567;DHT22;37657;53.182;5.638;2022-07-29T10:49:20;19.00;99.90
51567;DHT22;37657;53.182;5.638;2022-07-29T10:51:53;18.90;99.90
51567;DHT22;37657;53.182;5.638;2022-07-29T10:54:42;19.00;99.90
51567;DHT22;37657;53.182;5.638;2022-07-29T11:07:39;19.10;99.90
51567;DHT22;37657;53.182;5.638;2022-07-29T11:15:09;19.20;99.90
51567;DHT22;37657;53.182;5.638;2022-07-29T11:20:45;19.40;99.90
51567;DHT22;37657;53.182;5.638;2022-07-29T11:31:44;19.80;99.90
51567;DHT22;37657;53.182;5.638;2022-07-29T11:40:26;20.00;99.90
51567;DHT22;37657;53.182;5.638;2022-07-29T11:45:31;20.00;99.90
51567;DHT22;37657;53.182;5.638;2022-07-29T11:48:15;20.00;99.90
51567;DHT22;37657;53.182;5.638;2022-07-29T11:50:41;20.10;99.90
51567;DHT22;37657;53.182;5.638;2022-07-29T11:53:12;20.10;99.90
51567;DHT22;37657;53.182;5.638;2022-07-29T11:55:39;20.10;99.90
51567;DHT22;37657;53.182;5.638;2022-07-29T11:58:05;20.10;99.90
51567;DHT22;37657;53.182;5.638;2022-07-29T12:00:39;20.10;99.90
51567;DHT22;37657;53.182;5.638;2022-07-29T12:03:09;20.10;99.90
51567;DHT22;37657;53.182;5.638;2022-07-29T12:05:44;20.10;99.90
51567;DHT22;37657;53.182;5.638;2022-07-29T12:08:18;20.10;99.90
51567;DHT22;37657;53.182;5.638;2022-07-29T12:10:46;20.10;99.90
51567;DHT22;37657;53.182;5.638;2022-07-29T12:13:12;20.10;99.90
51567;DHT22;37657;53.182;5.638;2022-07-29T12:15:38;20.10;99.90
51567;DHT22;37657;53.182;5.638;2022-07-29T12:18:11;20.10;99.90
51567;DHT22;37657;53.182;5.638;2022-07-29T12:20:37;20.20;99.90
51567;DHT22;37657;53.182;5.638;2022-07-29T12:23:07;20.20;99.90
51567;DHT22;37657;53.182;5.638;2022-07-29T12:25:41;20.20;99.90
51567;DHT22;37657;53.182;5.638;2022-07-29T12:28:13;20.30;99.90
51567;DHT22;37657;53.182;5.638;2022-07-29T12:30:48;20.30;99.90
51567;DHT22;37657;53.182;5.638;2022-07-29T12:33:20;20.30;99.90
51567;DHT22;37657;53.182;5.638;2022-07-29T12:35:50;20.30;99.90
51567;DHT22;37657;53.182;5.638;2022-07-29T12:38:17;20.40;99.90
51567;DHT22;37657;53.182;5.638;2022-07-29T12:40:44;20.40;99.90
51567;DHT22;37657;53.182;5.638;2022-07-29T12:45:39;20.50;99.90
51567;DHT22;37657;53.182;5.638;2022-07-29T12:48:06;20.60;99.90
51567;DHT22;37657;53.182;5.638;2022-07-29T12:50:35;20.60;99.90
51567;DHT22;37657;53.182;5.638;2022-07-29T12:53:12;20.70;99.90
51567;DHT22;37657;53.182;5.638;2022-07-29T12:55:43;20.80;99.90
51567;DHT22;37657;53.182;5.638;2022-07-29T12:58:09;20.90;99.90
51567;DHT22;37657;53.182;5.638;2022-07-29T13:00:35;21.00;99.90
51567;DHT22;37657;53.182;5.638;2022-07-29T13:03:00;21.00;99.90
51567;DHT22;37657;53.182;5.638;2022-07-29T13:05:43;21.10;99.90
51567;DHT22;37657;53.182;5.638;2022-07-29T13:08:11;21.20;99.90
51567;DHT22;37657;53.182;5.638;2022-07-29T13:10:36;21.30;99.90
51567;DHT22;37657;53.182;5.638;2022-07-29T13:13:07;21.20;99.90
51567;DHT22;37657;53.182;5.638;2022-07-29T13:15:35;21.20;99.90
51567;DHT22;37657;53.182;5.638;2022-07-29T13:18:01;21.20;99.90
51567;DHT22;37657;53.182;5.638;2022-07-29T13:20:28;21.20;99.90
51567;DHT22;37657;53.182;5.638;2022-07-29T13:22:58;21.10;99.90
51567;DHT22;37657;53.182;5.638;2022-07-29T13:25:30;21.10;99.90
51567;DHT22;37657;53.182;5.638;2022-07-29T13:27:56;21.10;99.90
51567;DHT22;37657;53.182;5.638;2022-07-29T13:30:22;21.00;99.90
51567;DHT22;37657;53.182;5.638;2022-07-29T13:32:48;21.00;99.90
51567;DHT22;37657;53.182;5.638;2022-07-29T13:35:15;21.00;99.90
51567;DHT22;37657;53.182;5.638;2022-07-29T13:37:40;21.20;99.90
51567;DHT22;37657;53.182;5.638;2022-07-29T13:40:07;21.40;99.90
51567;DHT22;37657;53.182;5.638;2022-07-29T13:42:33;21.70;99.90
51567;DHT22;37657;53.182;5.638;2022-07-29T13:45:00;22.00;99.90
51567;DHT22;37657;53.182;5.638;2022-07-29T13:47:26;22.30;99.90
51567;DHT22;37657;53.182;5.638;2022-07-29T13:49:51;22.40;99.90
51567;DHT22;37657;53.182;5.638;2022-07-29T13:52:18;22.60;99.90
51567;DHT22;37657;53.182;5.638;2022-07-29T13:54:44;22.70;99.90
51567;DHT22;37657;53.182;5.638;2022-07-29T13:57:11;22.70;99.90
51567;DHT22;37657;53.182;5.638;2022-07-29T13:59:37;22.70;99.90
51567;DHT22;37657;53.182;5.638;2022-07-29T14:02:03;22.80;99.90
51567;DHT22;37657;53.182;5.638;2022-07-29T14:04:29;22.80;99.90
51567;DHT22;37657;53.182;5.638;2022-07-29T14:06:54;22.90;99.90
51567;DHT22;37657;53.182;5.638;2022-07-29T14:09:20;23.10;99.90
51567;DHT22;37657;53.182;5.638;2022-07-29T14:11:45;23.10;99.90
51567;DHT22;37657;53.182;5.638;2022-07-29T14:14:12;23.10;99.90
51567;DHT22;37657;53.182;5.638;2022-07-29T14:16:37;23.10;99.90
51567;DHT22;37657;53.182;5.638;2022-07-29T14:19:03;23.30;99.90
51567;DHT22;37657;53.182;5.638;2022-07-29T14:21:29;23.40;99.90
51567;DHT22;37657;53.182;5.638;2022-07-29T14:23:54;23.50;99.90
51567;DHT22;37657;53.182;5.638;2022-07-29T14:26:21;23.40;99.90
51567;DHT22;37657;53.182;5.638;2022-07-29T14:28:47;23.40;99.90
51567;DHT22;37657;53.182;5.638;2022-07-29T14:31:13;23.50;99.90
51567;DHT22;37657;53.182;5.638;2022-07-29T14:33:38;23.50;99.90
51567;DHT22;37657;53.182;5.638;2022-07-29T14:36:04;23.50;99.90
51567;DHT22;37657;53.182;5.638;2022-07-29T14:38:29;23.40;99.90
51567;DHT22;37657;53.182;5.638;2022-07-29T14:40:55;23.40;99.90
51567;DHT22;37657;53.182;5.638;2022-07-29T14:43:20;23.40;99.90
51567;DHT22;37657;53.182;5.638;2022-07-29T14:45:46;23.40;99.90
51567;DHT22;37657;53.182;5.638;2022-07-29T14:48:12;23.40;99.90
51567;DHT22;37657;53.182;5.638;2022-07-29T14:50:37;23.60;99.90
51567;DHT22;37657;53.182;5.638;2022-07-29T14:53:03;23.60;99.90
51567;DHT22;37657;53.182;5.638;2022-07-29T14:55:29;23.70;99.90
51567;DHT22;37657;53.182;5.638;2022-07-29T14:57:54;23.90;99.90
51567;DHT22;37657;53.182;5.638;2022-07-29T15:00:20;24.00;99.90
51567;DHT22;37657;53.182;5.638;2022-07-29T15:02:46;24.10;99.90
51567;DHT22;37657;53.182;5.638;2022-07-29T15:05:12;24.20;99.90
51567;DHT22;37657;53.182;5.638;2022-07-29T15:07:38;24.20;99.90
51567;DHT22;37657;53.182;5.638;2022-07-29T15:10:03;24.20;99.90
51567;DHT22;37657;53.182;5.638;2022-07-29T15:12:30;24.20;99.90
51567;DHT22;37657;53.182;5.638;2022-07-29T15:14:56;24.10;99.90
51567;DHT22;37657;53.182;5.638;2022-07-29T15:17:22;24.00;99.90
51567;DHT22;37657;53.182;5.638;2022-07-29T15:19:48;24.00;99.90
51567;DHT22;37657;53.182;5.638;2022-07-29T15:22:14;24.00;99.90
51567;DHT22;37657;53.182;5.638;2022-07-29T15:24:39;24.00;99.90
51567;DHT22;37657;53.182;5.638;2022-07-29T15:27:05;24.20;99.90
51567;DHT22;37657;53.182;5.638;2022-07-29T15:29:30;24.30;99.90
51567;DHT22;37657;53.182;5.638;2022-07-29T15:31:56;24.20;99.90
51567;DHT22;37657;53.182;5.638;2022-07-29T15:34:21;24.20;99.90
51567;DHT22;37657;53.182;5.638;2022-07-29T15:36:52;24.20;99.90
51567;DHT22;37657;53.182;5.638;2022-07-29T15:39:18;24.30;99.90
51567;DHT22;37657;53.182;5.638;2022-07-29T15:41:44;24.40;99.90
51567;DHT22;37657;53.182;5.638;2022-07-29T15:44:10;24.40;99.90
51567;DHT22;37657;53.182;5.638;2022-07-29T15:46:35;24.50;99.90
51567;DHT22;37657;53.182;5.638;2022-07-29T15:49:19;24.60;99.90
51567;DHT22;37657;53.182;5.638;2022-07-29T15:51:45;24.60;99.90
51567;DHT22;37657;53.182;5.638;2022-07-29T15:54:10;24.60;99.90
51567;DHT22;37657;53.182;5.638;2022-07-29T15:56:36;24.60;99.90
51567;DHT22;37657;53.182;5.638;2022-07-29T15:59:03;24.60;99.90
51567;DHT22;37657;53.182;5.638;2022-07-29T16:01:28;24.40;99.90
51567;DHT22;37657;53.182;5.638;2022-07-29T16:03:54;24.30;99.90
51567;DHT22;37657;53.182;5.638;2022-07-29T16:06:20;24.30;99.90
51567;DHT22;37657;53.182;5.638;2022-07-29T16:08:46;24.10;99.90
51567;DHT22;37657;53.182;5.638;2022-07-29T16:11:11;23.90;99.90
51567;DHT22;37657;53.182;5.638;2022-07-29T16:13:37;23.90;99.90
51567;DHT22;37657;53.182;5.638;2022-07-29T16:16:02;23.80;99.90
51567;DHT22;37657;53.182;5.638;2022-07-29T16:18:28;23.70;99.90
51567;DHT22;37657;53.182;5.638;2022-07-29T16:20:54;23.60;99.90
51567;DHT22;37657;53.182;5.638;2022-07-29T16:23:19;23.40;99.90
51567;DHT22;37657;53.182;5.638;2022-07-29T16:25:45;23.30;99.90
51567;DHT22;37657;53.182;5.638;2022-07-29T16:28:10;23.20;99.90